Create Tblcommutelog Verified Points Advance Search
| # | Trip ID | Id Commuter | Trip Date | Trip Num | Current Lat | Current Lng | Delta Distance | Current Time | Activity | Activity Confidence | Current Speed | |
|---|---|---|---|---|---|---|---|---|---|---|---|---|
| 70681 | 260210_783292_6437402_0631 | 783292 | (not set) | (not set) | 38.880207059325 | -77.139861182541 | 5.4456 | 2026-02-10 06:39:24 | in_vehicle | 100 | 10.505422586212 | |
| 70682 | 260210_783292_6437402_0631 | 783292 | (not set) | (not set) | 38.880207059325 | -77.139861182541 | 5.4456 | 2026-02-10 06:39:24 | in_vehicle | 100 | 10.505422586212 | |
| 70683 | 260210_784692_16513841_0623 | 784692 | (not set) | (not set) | 38.828483475241 | -77.21952362224 | 16.7926 | 2026-02-10 06:39:25 | in_vehicle | 100 | 13.513996799199 | |
| 70684 | 260210_788084_16449863_0631 | 788084 | (not set) | (not set) | 39.409755376602 | -76.415160423713 | 7.3006 | 2026-02-10 06:39:26 | in_vehicle | 100 | 12.3651059036 | |
| 70685 | 260210_769092_16489920_0631 | 769092 | (not set) | (not set) | 38.816773420422 | -77.473063591881 | 6.682 | 2026-02-10 06:39:27 | in_vehicle | 100 | 14.993696746448 | |
| 70686 | 260210_786113_16505268_0622 | 786113 | (not set) | (not set) | 38.827462198985 | -77.220016241539 | 17.1174 | 2026-02-10 06:39:29 | unknown | 100 | 13.48717444366 | |
| 70687 | 260210_786132_16505268_0623 | 786132 | (not set) | (not set) | 38.827483801728 | -77.220074171148 | 16.8849 | 2026-02-10 06:39:29 | in_vehicle | 100 | 13.4692928733 | |
| 70688 | 260210_789839_16472497_0632 | 789839 | (not set) | (not set) | 38.725705662738 | -77.202961397647 | 8.2224 | 2026-02-10 06:39:29 | in_vehicle | 100 | 15.248509124071 | |
| 70689 | 260210_789860_16489920_0631 | 789860 | (not set) | (not set) | 38.817164375369 | -77.471998534376 | 6.8163 | 2026-02-10 06:39:30 | in_vehicle | 100 | 15.029459887167 | |
| 70690 | 260210_788077_16505268_0629 | 788077 | (not set) | (not set) | 38.826973361843 | -77.220294123075 | 12.2164 | 2026-02-10 06:39:31 | in_vehicle | 100 | 13.558700725098 | |
| 70691 | 260210_791179_6424413_0607 | 791179 | (not set) | (not set) | 38.8599369426 | -77.069817207857 | 35.5938 | 2026-02-10 06:39:31 | in_vehicle | 100 | 15.29768344256 | |
| 70692 | 260210_791179_6424413_0607 | 791179 | (not set) | (not set) | 38.8599369426 | -77.069817207857 | 35.5938 | 2026-02-10 06:39:31 | in_vehicle | 100 | 15.29768344256 | |
| 70693 | 260210_787968_16505268_0622 | 787968 | (not set) | (not set) | 38.8267176 | -77.2204798 | 17.5254 | 2026-02-10 06:39:32 | still | 33 | 13.406707377042 | |
| 70694 | 260210_784875_16514072_0625 | 784875 | (not set) | (not set) | 39.18390035 | -77.10698915 | 8.5429 | 2026-02-10 06:39:32 | in_vehicle | 100 | 6.4641876849625 | |
| 70695 | 260210_786880_16464305_0632 | 786880 | (not set) | (not set) | 38.931160341518 | -77.210585917548 | 7.5471 | 2026-02-10 06:39:34 | in_vehicle | 100 | 12.499217681297 | |
| 70696 | 260210_786880_16464305_0632 | 786880 | (not set) | (not set) | 38.931160341518 | -77.210585917548 | 7.5471 | 2026-02-10 06:39:34 | in_vehicle | 100 | 12.499217681297 | |
| 70697 | 260210_790397_16483285_0635 | 790397 | (not set) | (not set) | 38.311139664554 | -77.44727119348 | 1.1625 | 2026-02-10 06:39:32 | in_vehicle | 100 | 8.4982163133566 | |
| 70698 | 260210_783292_6437402_0631 | 783292 | (not set) | (not set) | 38.879334151381 | -77.136498450431 | 5.6367 | 2026-02-10 06:39:37 | in_vehicle | 100 | 10.389192378875 | |
| 70699 | 260210_783292_6437402_0631 | 783292 | (not set) | (not set) | 38.879334151381 | -77.136498450431 | 5.6367 | 2026-02-10 06:39:37 | in_vehicle | 100 | 10.389192378875 | |
| 70700 | 260210_784692_16513841_0623 | 784692 | (not set) | (not set) | 38.825469129687 | -77.221087473747 | 17.0169 | 2026-02-10 06:39:37 | in_vehicle | 100 | 13.142954214239 |